sensor_id;sensor_type;location;lat;lon;timestamp;P1;durP1;ratioP1;P2;durP2;ratioP2
10045;SDS011;5063;50.878;4.742;2023-06-22T00:01:58;6.75;;;5.05;;
10045;SDS011;5063;50.878;4.742;2023-06-22T00:04:24;5.43;;;4.93;;
10045;SDS011;5063;50.878;4.742;2023-06-22T00:06:50;5.43;;;4.20;;
10045;SDS011;5063;50.878;4.742;2023-06-22T00:09:16;4.93;;;4.40;;
10045;SDS011;5063;50.878;4.742;2023-06-22T00:11:42;5.57;;;4.95;;
10045;SDS011;5063;50.878;4.742;2023-06-22T00:14:07;4.97;;;4.47;;
10045;SDS011;5063;50.878;4.742;2023-06-22T00:16:33;7.13;;;4.75;;
10045;SDS011;5063;50.878;4.742;2023-06-22T00:18:59;5.85;;;5.03;;
10045;SDS011;5063;50.878;4.742;2023-06-22T00:21:26;9.07;;;5.40;;
10045;SDS011;5063;50.878;4.742;2023-06-22T00:23:52;5.40;;;4.75;;
10045;SDS011;5063;50.878;4.742;2023-06-22T00:26:18;5.15;;;4.65;;
10045;SDS011;5063;50.878;4.742;2023-06-22T00:28:44;6.10;;;4.67;;
10045;SDS011;5063;50.878;4.742;2023-06-22T00:31:10;5.03;;;4.53;;
10045;SDS011;5063;50.878;4.742;2023-06-22T00:33:36;7.23;;;4.60;;
10045;SDS011;5063;50.878;4.742;2023-06-22T00:36:02;5.27;;;4.00;;
10045;SDS011;5063;50.878;4.742;2023-06-22T00:38:28;5.63;;;5.03;;
10045;SDS011;5063;50.878;4.742;2023-06-22T00:40:54;5.57;;;4.67;;
10045;SDS011;5063;50.878;4.742;2023-06-22T00:43:20;4.90;;;4.40;;
10045;SDS011;5063;50.878;4.742;2023-06-22T00:45:45;4.67;;;4.20;;
10045;SDS011;5063;50.878;4.742;2023-06-22T00:48:12;5.97;;;3.73;;
10045;SDS011;5063;50.878;4.742;2023-06-22T00:50:39;5.80;;;4.20;;
10045;SDS011;5063;50.878;4.742;2023-06-22T00:53:06;4.60;;;4.10;;
10045;SDS011;5063;50.878;4.742;2023-06-22T00:55:37;5.73;;;4.37;;
10045;SDS011;5063;50.878;4.742;2023-06-22T00:58:08;5.47;;;4.93;;
10045;SDS011;5063;50.878;4.742;2023-06-22T01:00:35;4.87;;;4.20;;
10045;SDS011;5063;50.878;4.742;2023-06-22T01:03:02;6.00;;;4.53;;
10045;SDS011;5063;50.878;4.742;2023-06-22T01:05:29;4.83;;;3.90;;
10045;SDS011;5063;50.878;4.742;2023-06-22T01:10:46;4.97;;;4.43;;
10045;SDS011;5063;50.878;4.742;2023-06-22T01:15:55;4.87;;;4.37;;
10045;SDS011;5063;50.878;4.742;2023-06-22T01:18:27;4.57;;;3.97;;
10045;SDS011;5063;50.878;4.742;2023-06-22T01:20:55;4.65;;;4.05;;
10045;SDS011;5063;50.878;4.742;2023-06-22T01:23:27;7.17;;;4.80;;
10045;SDS011;5063;50.878;4.742;2023-06-22T01:26:13;6.43;;;4.77;;
10045;SDS011;5063;50.878;4.742;2023-06-22T01:29:01;6.73;;;4.40;;
10045;SDS011;5063;50.878;4.742;2023-06-22T01:31:30;6.70;;;4.85;;
10045;SDS011;5063;50.878;4.742;2023-06-22T01:34:01;4.60;;;4.17;;
10045;SDS011;5063;50.878;4.742;2023-06-22T01:36:29;5.40;;;4.40;;
10045;SDS011;5063;50.878;4.742;2023-06-22T01:38:57;4.30;;;3.90;;
10045;SDS011;5063;50.878;4.742;2023-06-22T01:41:27;4.60;;;4.13;;
10045;SDS011;5063;50.878;4.742;2023-06-22T01:43:55;6.03;;;4.93;;
10045;SDS011;5063;50.878;4.742;2023-06-22T01:46:22;4.83;;;4.43;;
10045;SDS011;5063;50.878;4.742;2023-06-22T01:48:48;5.20;;;4.70;;
10045;SDS011;5063;50.878;4.742;2023-06-22T01:51:16;5.37;;;4.83;;
10045;SDS011;5063;50.878;4.742;2023-06-22T01:53:42;6.03;;;4.30;;
10045;SDS011;5063;50.878;4.742;2023-06-22T01:56:08;4.90;;;3.70;;
10045;SDS011;5063;50.878;4.742;2023-06-22T01:58:34;4.37;;;3.97;;
10045;SDS011;5063;50.878;4.742;2023-06-22T02:01:12;4.33;;;3.93;;
10045;SDS011;5063;50.878;4.742;2023-06-22T02:03:45;5.70;;;5.10;;
10045;SDS011;5063;50.878;4.742;2023-06-22T02:06:23;6.73;;;4.80;;
10045;SDS011;5063;50.878;4.742;2023-06-22T02:08:57;6.27;;;5.03;;
10045;SDS011;5063;50.878;4.742;2023-06-22T02:11:26;5.77;;;4.77;;
10045;SDS011;5063;50.878;4.742;2023-06-22T02:13:55;6.97;;;4.87;;
10045;SDS011;5063;50.878;4.742;2023-06-22T02:16:22;5.73;;;4.70;;
10045;SDS011;5063;50.878;4.742;2023-06-22T02:18:49;6.17;;;4.30;;
10045;SDS011;5063;50.878;4.742;2023-06-22T02:21:16;5.07;;;4.57;;
10045;SDS011;5063;50.878;4.742;2023-06-22T02:23:46;5.53;;;4.03;;
10045;SDS011;5063;50.878;4.742;2023-06-22T02:26:12;6.83;;;4.93;;
10045;SDS011;5063;50.878;4.742;2023-06-22T02:28:38;5.13;;;4.63;;
10045;SDS011;5063;50.878;4.742;2023-06-22T02:31:04;5.40;;;4.00;;
10045;SDS011;5063;50.878;4.742;2023-06-22T02:33:30;4.47;;;4.03;;
10045;SDS011;5063;50.878;4.742;2023-06-22T02:35:56;5.77;;;4.83;;
10045;SDS011;5063;50.878;4.742;2023-06-22T02:38:21;6.20;;;4.33;;
10045;SDS011;5063;50.878;4.742;2023-06-22T02:40:49;6.03;;;4.40;;
10045;SDS011;5063;50.878;4.742;2023-06-22T02:43:15;5.10;;;4.60;;
10045;SDS011;5063;50.878;4.742;2023-06-22T02:45:42;5.53;;;4.30;;
10045;SDS011;5063;50.878;4.742;2023-06-22T02:48:07;5.63;;;4.63;;
10045;SDS011;5063;50.878;4.742;2023-06-22T02:50:33;5.80;;;4.73;;
10045;SDS011;5063;50.878;4.742;2023-06-22T02:52:59;5.50;;;4.80;;
10045;SDS011;5063;50.878;4.742;2023-06-22T02:55:25;5.07;;;4.57;;
10045;SDS011;5063;50.878;4.742;2023-06-22T02:57:50;7.17;;;4.90;;
10045;SDS011;5063;50.878;4.742;2023-06-22T03:00:18;5.77;;;4.90;;
10045;SDS011;5063;50.878;4.742;2023-06-22T03:02:48;6.27;;;4.73;;
10045;SDS011;5063;50.878;4.742;2023-06-22T03:05:14;5.90;;;4.97;;
10045;SDS011;5063;50.878;4.742;2023-06-22T03:07:43;6.03;;;5.27;;
10045;SDS011;5063;50.878;4.742;2023-06-22T03:10:09;7.77;;;5.50;;
10045;SDS011;5063;50.878;4.742;2023-06-22T03:12:39;6.37;;;5.50;;
10045;SDS011;5063;50.878;4.742;2023-06-22T03:15:14;7.00;;;6.13;;
10045;SDS011;5063;50.878;4.742;2023-06-22T03:17:40;6.73;;;5.87;;
10045;SDS011;5063;50.878;4.742;2023-06-22T03:20:06;8.80;;;6.10;;
10045;SDS011;5063;50.878;4.742;2023-06-22T03:22:37;6.13;;;5.23;;
10045;SDS011;5063;50.878;4.742;2023-06-22T03:25:03;6.83;;;5.43;;
10045;SDS011;5063;50.878;4.742;2023-06-22T03:27:29;7.03;;;6.33;;
10045;SDS011;5063;50.878;4.742;2023-06-22T03:29:56;6.20;;;5.53;;
10045;SDS011;5063;50.878;4.742;2023-06-22T03:32:22;8.10;;;6.10;;
10045;SDS011;5063;50.878;4.742;2023-06-22T03:34:48;8.03;;;6.70;;
10045;SDS011;5063;50.878;4.742;2023-06-22T03:37:14;8.23;;;6.00;;
10045;SDS011;5063;50.878;4.742;2023-06-22T03:39:40;7.03;;;6.00;;
10045;SDS011;5063;50.878;4.742;2023-06-22T03:42:07;7.97;;;6.07;;
10045;SDS011;5063;50.878;4.742;2023-06-22T03:44:33;7.30;;;6.33;;
10045;SDS011;5063;50.878;4.742;2023-06-22T03:47:02;6.93;;;6.23;;
10045;SDS011;5063;50.878;4.742;2023-06-22T03:49:29;7.90;;;6.30;;
10045;SDS011;5063;50.878;4.742;2023-06-22T03:51:55;10.83;;;5.97;;
10045;SDS011;5063;50.878;4.742;2023-06-22T03:54:20;6.50;;;5.70;;
10045;SDS011;5063;50.878;4.742;2023-06-22T03:56:46;8.07;;;6.47;;
10045;SDS011;5063;50.878;4.742;2023-06-22T03:59:12;8.10;;;7.30;;
10045;SDS011;5063;50.878;4.742;2023-06-22T04:01:37;9.57;;;6.97;;
10045;SDS011;5063;50.878;4.742;2023-06-22T04:04:03;7.20;;;6.50;;
10045;SDS011;5063;50.878;4.742;2023-06-22T04:06:29;9.97;;;6.27;;
10045;SDS011;5063;50.878;4.742;2023-06-22T04:08:55;8.33;;;6.00;;
10045;SDS011;5063;50.878;4.742;2023-06-22T04:11:22;7.83;;;7.03;;
10045;SDS011;5063;50.878;4.742;2023-06-22T04:13:47;7.53;;;6.57;;
10045;SDS011;5063;50.878;4.742;2023-06-22T04:16:14;8.50;;;6.53;;
10045;SDS011;5063;50.878;4.742;2023-06-22T04:18:39;9.57;;;7.40;;
10045;SDS011;5063;50.878;4.742;2023-06-22T04:21:06;9.90;;;7.47;;
10045;SDS011;5063;50.878;4.742;2023-06-22T04:23:32;8.00;;;7.03;;
10045;SDS011;5063;50.878;4.742;2023-06-22T04:25:58;7.77;;;6.33;;
10045;SDS011;5063;50.878;4.742;2023-06-22T04:28:27;11.50;;;7.07;;
10045;SDS011;5063;50.878;4.742;2023-06-22T04:30:52;8.90;;;6.83;;
10045;SDS011;5063;50.878;4.742;2023-06-22T04:33:23;6.73;;;5.27;;
10045;SDS011;5063;50.878;4.742;2023-06-22T04:35:48;9.80;;;6.40;;
10045;SDS011;5063;50.878;4.742;2023-06-22T04:38:15;7.73;;;5.83;;
10045;SDS011;5063;50.878;4.742;2023-06-22T04:40:41;7.43;;;6.73;;
10045;SDS011;5063;50.878;4.742;2023-06-22T04:43:07;8.87;;;7.20;;
10045;SDS011;5063;50.878;4.742;2023-06-22T04:45:35;8.83;;;7.30;;
10045;SDS011;5063;50.878;4.742;2023-06-22T04:48:03;10.83;;;8.87;;
10045;SDS011;5063;50.878;4.742;2023-06-22T04:50:29;8.77;;;7.83;;
10045;SDS011;5063;50.878;4.742;2023-06-22T04:52:55;9.80;;;8.00;;
10045;SDS011;5063;50.878;4.742;2023-06-22T04:55:21;9.30;;;7.47;;
10045;SDS011;5063;50.878;4.742;2023-06-22T04:57:50;8.73;;;7.37;;
10045;SDS011;5063;50.878;4.742;2023-06-22T05:02:44;9.60;;;8.60;;
10045;SDS011;5063;50.878;4.742;2023-06-22T05:05:11;9.33;;;7.80;;
10045;SDS011;5063;50.878;4.742;2023-06-22T05:07:45;11.00;;;8.30;;
10045;SDS011;5063;50.878;4.742;2023-06-22T05:10:13;9.10;;;7.20;;
10045;SDS011;5063;50.878;4.742;2023-06-22T05:12:39;11.23;;;8.18;;
10045;SDS011;5063;50.878;4.742;2023-06-22T05:15:07;11.50;;;8.10;;
10045;SDS011;5063;50.878;4.742;2023-06-22T05:17:33;8.10;;;7.00;;
10045;SDS011;5063;50.878;4.742;2023-06-22T05:19:59;10.73;;;8.77;;
10045;SDS011;5063;50.878;4.742;2023-06-22T05:22:25;9.70;;;7.70;;
10045;SDS011;5063;50.878;4.742;2023-06-22T05:24:51;10.27;;;7.47;;
10045;SDS011;5063;50.878;4.742;2023-06-22T05:27:17;10.50;;;8.45;;
10045;SDS011;5063;50.878;4.742;2023-06-22T05:29:43;11.27;;;9.50;;
10045;SDS011;5063;50.878;4.742;2023-06-22T05:32:08;13.27;;;10.10;;
10045;SDS011;5063;50.878;4.742;2023-06-22T05:34:34;13.00;;;10.05;;
10045;SDS011;5063;50.878;4.742;2023-06-22T05:37:00;10.48;;;9.30;;
10045;SDS011;5063;50.878;4.742;2023-06-22T05:39:26;11.40;;;8.77;;
10045;SDS011;5063;50.878;4.742;2023-06-22T05:41:52;14.55;;;10.73;;
10045;SDS011;5063;50.878;4.742;2023-06-22T05:44:18;11.90;;;9.00;;
10045;SDS011;5063;50.878;4.742;2023-06-22T05:46:44;11.85;;;9.27;;
10045;SDS011;5063;50.878;4.742;2023-06-22T05:49:12;12.75;;;9.43;;
10045;SDS011;5063;50.878;4.742;2023-06-22T05:51:38;11.82;;;9.13;;
10045;SDS011;5063;50.878;4.742;2023-06-22T05:54:04;12.27;;;8.77;;
10045;SDS011;5063;50.878;4.742;2023-06-22T05:56:30;10.57;;;9.38;;
10045;SDS011;5063;50.878;4.742;2023-06-22T05:58:56;11.32;;;8.45;;
10045;SDS011;5063;50.878;4.742;2023-06-22T06:01:22;12.48;;;9.43;;
10045;SDS011;5063;50.878;4.742;2023-06-22T06:03:47;11.75;;;8.43;;
10045;SDS011;5063;50.878;4.742;2023-06-22T06:06:15;14.00;;;9.35;;
10045;SDS011;5063;50.878;4.742;2023-06-22T06:08:41;12.93;;;8.98;;
10045;SDS011;5063;50.878;4.742;2023-06-22T06:11:07;10.90;;;8.73;;
10045;SDS011;5063;50.878;4.742;2023-06-22T06:13:32;11.23;;;9.30;;
10045;SDS011;5063;50.878;4.742;2023-06-22T06:15:58;13.88;;;9.68;;
10045;SDS011;5063;50.878;4.742;2023-06-22T06:18:24;10.82;;;9.55;;
10045;SDS011;5063;50.878;4.742;2023-06-22T06:20:50;11.82;;;8.85;;
10045;SDS011;5063;50.878;4.742;2023-06-22T06:23:16;11.57;;;9.15;;
10045;SDS011;5063;50.878;4.742;2023-06-22T06:25:42;11.95;;;9.45;;
10045;SDS011;5063;50.878;4.742;2023-06-22T06:28:07;11.90;;;9.48;;
10045;SDS011;5063;50.878;4.742;2023-06-22T06:30:33;11.03;;;8.73;;
10045;SDS011;5063;50.878;4.742;2023-06-22T06:33:02;11.38;;;9.15;;
10045;SDS011;5063;50.878;4.742;2023-06-22T06:35:28;11.88;;;9.30;;
10045;SDS011;5063;50.878;4.742;2023-06-22T06:37:53;13.70;;;9.38;;
10045;SDS011;5063;50.878;4.742;2023-06-22T06:40:19;11.13;;;9.25;;
10045;SDS011;5063;50.878;4.742;2023-06-22T06:42:46;11.57;;;10.38;;
10045;SDS011;5063;50.878;4.742;2023-06-22T06:45:20;10.88;;;9.75;;
10045;SDS011;5063;50.878;4.742;2023-06-22T06:47:52;14.35;;;11.75;;
10045;SDS011;5063;50.878;4.742;2023-06-22T06:50:18;15.17;;;11.90;;
10045;SDS011;5063;50.878;4.742;2023-06-22T06:52:44;13.15;;;10.65;;
10045;SDS011;5063;50.878;4.742;2023-06-22T06:55:10;15.43;;;10.55;;
10045;SDS011;5063;50.878;4.742;2023-06-22T06:57:37;12.50;;;11.05;;
10045;SDS011;5063;50.878;4.742;2023-06-22T07:00:04;13.25;;;10.68;;
10045;SDS011;5063;50.878;4.742;2023-06-22T07:02:35;13.88;;;10.90;;
10045;SDS011;5063;50.878;4.742;2023-06-22T07:05:01;12.70;;;10.23;;
10045;SDS011;5063;50.878;4.742;2023-06-22T07:07:29;13.48;;;10.57;;
10045;SDS011;5063;50.878;4.742;2023-06-22T07:09:55;12.85;;;10.68;;
10045;SDS011;5063;50.878;4.742;2023-06-22T07:12:21;12.20;;;9.88;;
10045;SDS011;5063;50.878;4.742;2023-06-22T07:14:46;13.15;;;9.43;;
10045;SDS011;5063;50.878;4.742;2023-06-22T07:17:12;12.15;;;9.23;;
10045;SDS011;5063;50.878;4.742;2023-06-22T07:19:38;10.20;;;8.05;;
10045;SDS011;5063;50.878;4.742;2023-06-22T07:22:05;9.98;;;7.35;;
10045;SDS011;5063;50.878;4.742;2023-06-22T07:24:31;9.70;;;7.70;;
10045;SDS011;5063;50.878;4.742;2023-06-22T07:26:57;9.68;;;7.55;;
10045;SDS011;5063;50.878;4.742;2023-06-22T07:29:24;9.40;;;7.38;;
10045;SDS011;5063;50.878;4.742;2023-06-22T07:31:52;9.63;;;7.63;;
10045;SDS011;5063;50.878;4.742;2023-06-22T07:34:18;8.95;;;7.25;;
10045;SDS011;5063;50.878;4.742;2023-06-22T07:36:44;8.20;;;7.40;;
10045;SDS011;5063;50.878;4.742;2023-06-22T07:39:11;9.02;;;7.57;;
10045;SDS011;5063;50.878;4.742;2023-06-22T07:41:38;9.30;;;7.22;;
10045;SDS011;5063;50.878;4.742;2023-06-22T07:44:06;11.00;;;7.57;;
10045;SDS011;5063;50.878;4.742;2023-06-22T07:46:32;7.80;;;6.95;;
10045;SDS011;5063;50.878;4.742;2023-06-22T07:48:58;8.90;;;7.45;;
10045;SDS011;5063;50.878;4.742;2023-06-22T07:51:24;8.10;;;7.30;;
10045;SDS011;5063;50.878;4.742;2023-06-22T07:53:51;8.68;;;7.03;;
10045;SDS011;5063;50.878;4.742;2023-06-22T07:56:16;8.13;;;6.63;;
10045;SDS011;5063;50.878;4.742;2023-06-22T07:58:46;8.38;;;7.47;;
10045;SDS011;5063;50.878;4.742;2023-06-22T08:01:13;10.45;;;7.30;;
10045;SDS011;5063;50.878;4.742;2023-06-22T08:03:39;9.48;;;6.72;;
10045;SDS011;5063;50.878;4.742;2023-06-22T08:06:05;9.88;;;6.88;;
10045;SDS011;5063;50.878;4.742;2023-06-22T08:08:34;7.88;;;6.32;;
10045;SDS011;5063;50.878;4.742;2023-06-22T08:11:00;8.38;;;6.80;;
10045;SDS011;5063;50.878;4.742;2023-06-22T08:13:26;8.50;;;6.82;;
10045;SDS011;5063;50.878;4.742;2023-06-22T08:15:52;7.30;;;6.40;;
10045;SDS011;5063;50.878;4.742;2023-06-22T08:18:17;10.38;;;6.18;;
10045;SDS011;5063;50.878;4.742;2023-06-22T08:20:43;7.85;;;7.05;;
10045;SDS011;5063;50.878;4.742;2023-06-22T08:23:09;7.17;;;6.47;;
10045;SDS011;5063;50.878;4.742;2023-06-22T08:25:34;6.57;;;5.88;;
10045;SDS011;5063;50.878;4.742;2023-06-22T08:28:01;9.93;;;6.28;;
10045;SDS011;5063;50.878;4.742;2023-06-22T08:30:27;8.40;;;6.47;;
10045;SDS011;5063;50.878;4.742;2023-06-22T08:32:53;7.78;;;5.95;;
10045;SDS011;5063;50.878;4.742;2023-06-22T08:35:21;15.20;;;6.38;;
10045;SDS011;5063;50.878;4.742;2023-06-22T08:37:47;6.60;;;5.93;;
10045;SDS011;5063;50.878;4.742;2023-06-22T08:40:17;9.88;;;5.75;;
10045;SDS011;5063;50.878;4.742;2023-06-22T08:42:45;6.45;;;5.32;;
10045;SDS011;5063;50.878;4.742;2023-06-22T08:45:11;7.10;;;6.35;;
10045;SDS011;5063;50.878;4.742;2023-06-22T08:47:37;8.02;;;6.28;;
10045;SDS011;5063;50.878;4.742;2023-06-22T08:50:04;9.05;;;5.68;;
10045;SDS011;5063;50.878;4.742;2023-06-22T08:52:31;6.97;;;5.53;;
10045;SDS011;5063;50.878;4.742;2023-06-22T08:54:57;6.85;;;5.45;;
10045;SDS011;5063;50.878;4.742;2023-06-22T08:57:26;5.85;;;5.07;;
10045;SDS011;5063;50.878;4.742;2023-06-22T08:59:53;6.32;;;5.25;;
10045;SDS011;5063;50.878;4.742;2023-06-22T09:02:19;6.05;;;5.00;;
10045;SDS011;5063;50.878;4.742;2023-06-22T09:04:48;7.93;;;5.20;;
10045;SDS011;5063;50.878;4.742;2023-06-22T09:07:14;6.40;;;5.80;;
10045;SDS011;5063;50.878;4.742;2023-06-22T09:09:47;6.40;;;5.38;;
10045;SDS011;5063;50.878;4.742;2023-06-22T09:12:13;8.02;;;5.75;;
10045;SDS011;5063;50.878;4.742;2023-06-22T09:14:39;6.90;;;5.32;;
10045;SDS011;5063;50.878;4.742;2023-06-22T09:17:05;6.13;;;5.47;;
10045;SDS011;5063;50.878;4.742;2023-06-22T09:19:31;5.35;;;4.60;;
10045;SDS011;5063;50.878;4.742;2023-06-22T09:21:56;7.80;;;5.53;;
10045;SDS011;5063;50.878;4.742;2023-06-22T09:24:22;7.43;;;5.90;;
10045;SDS011;5063;50.878;4.742;2023-06-22T09:26:48;5.82;;;5.20;;
10045;SDS011;5063;50.878;4.742;2023-06-22T09:29:14;6.78;;;5.80;;
10045;SDS011;5063;50.878;4.742;2023-06-22T09:31:39;5.65;;;5.10;;
10045;SDS011;5063;50.878;4.742;2023-06-22T09:34:06;6.88;;;6.03;;
10045;SDS011;5063;50.878;4.742;2023-06-22T09:36:31;6.28;;;5.40;;
10045;SDS011;5063;50.878;4.742;2023-06-22T09:38:57;7.65;;;5.32;;
10045;SDS011;5063;50.878;4.742;2023-06-22T09:41:24;8.38;;;5.82;;
10045;SDS011;5063;50.878;4.742;2023-06-22T09:43:50;7.07;;;6.38;;
10045;SDS011;5063;50.878;4.742;2023-06-22T09:46:16;6.85;;;6.10;;
10045;SDS011;5063;50.878;4.742;2023-06-22T09:48:42;8.75;;;7.72;;
10045;SDS011;5063;50.878;4.742;2023-06-22T09:51:08;8.55;;;7.10;;
10045;SDS011;5063;50.878;4.742;2023-06-22T09:53:34;8.85;;;7.32;;
10045;SDS011;5063;50.878;4.742;2023-06-22T09:56:00;8.63;;;7.63;;
10045;SDS011;5063;50.878;4.742;2023-06-22T09:58:27;9.55;;;7.57;;
10045;SDS011;5063;50.878;4.742;2023-06-22T10:00:53;9.73;;;8.70;;
10045;SDS011;5063;50.878;4.742;2023-06-22T10:03:19;9.27;;;8.38;;
10045;SDS011;5063;50.878;4.742;2023-06-22T10:05:45;10.40;;;9.20;;
10045;SDS011;5063;50.878;4.742;2023-06-22T10:08:11;9.95;;;8.95;;
10045;SDS011;5063;50.878;4.742;2023-06-22T10:10:37;15.15;;;10.70;;
10045;SDS011;5063;50.878;4.742;2023-06-22T10:13:07;13.93;;;11.00;;
10045;SDS011;5063;50.878;4.742;2023-06-22T10:15:37;12.48;;;11.20;;
10045;SDS011;5063;50.878;4.742;2023-06-22T10:18:03;13.63;;;12.33;;
10045;SDS011;5063;50.878;4.742;2023-06-22T10:20:29;13.30;;;12.00;;
10045;SDS011;5063;50.878;4.742;2023-06-22T10:22:55;14.23;;;12.83;;
10045;SDS011;5063;50.878;4.742;2023-06-22T10:25:20;15.87;;;14.17;;
10045;SDS011;5063;50.878;4.742;2023-06-22T10:27:47;15.33;;;13.73;;
10045;SDS011;5063;50.878;4.742;2023-06-22T10:30:13;18.60;;;15.37;;
10045;SDS011;5063;50.878;4.742;2023-06-22T10:32:40;16.47;;;14.77;;
10045;SDS011;5063;50.878;4.742;2023-06-22T10:35:07;20.20;;;15.93;;
10045;SDS011;5063;50.878;4.742;2023-06-22T10:37:36;23.43;;;16.20;;
10045;SDS011;5063;50.878;4.742;2023-06-22T10:40:02;19.90;;;16.73;;
10045;SDS011;5063;50.878;4.742;2023-06-22T10:42:29;19.07;;;16.90;;
10045;SDS011;5063;50.878;4.742;2023-06-22T10:44:55;19.27;;;17.20;;
10045;SDS011;5063;50.878;4.742;2023-06-22T10:47:20;19.70;;;17.40;;
10045;SDS011;5063;50.878;4.742;2023-06-22T10:49:46;19.93;;;17.77;;
10045;SDS011;5063;50.878;4.742;2023-06-22T10:52:12;22.73;;;19.57;;
10045;SDS011;5063;50.878;4.742;2023-06-22T10:54:38;20.03;;;17.87;;
10045;SDS011;5063;50.878;4.742;2023-06-22T10:57:04;21.63;;;17.43;;
10045;SDS011;5063;50.878;4.742;2023-06-22T10:59:30;20.70;;;18.20;;
10045;SDS011;5063;50.878;4.742;2023-06-22T11:01:56;21.53;;;18.63;;
10045;SDS011;5063;50.878;4.742;2023-06-22T11:04:22;20.70;;;18.37;;
10045;SDS011;5063;50.878;4.742;2023-06-22T11:06:48;23.67;;;20.13;;
10045;SDS011;5063;50.878;4.742;2023-06-22T11:09:15;25.23;;;20.23;;
10045;SDS011;5063;50.878;4.742;2023-06-22T11:11:45;22.90;;;20.30;;
10045;SDS011;5063;50.878;4.742;2023-06-22T11:14:15;26.00;;;22.27;;
10045;SDS011;5063;50.878;4.742;2023-06-22T11:16:41;26.37;;;23.23;;
10045;SDS011;5063;50.878;4.742;2023-06-22T11:19:06;24.67;;;22.03;;
10045;SDS011;5063;50.878;4.742;2023-06-22T11:21:32;27.80;;;22.23;;
10045;SDS011;5063;50.878;4.742;2023-06-22T11:24:01;26.03;;;21.70;;
10045;SDS011;5063;50.878;4.742;2023-06-22T11:26:27;24.50;;;21.90;;
10045;SDS011;5063;50.878;4.742;2023-06-22T11:28:53;23.97;;;21.47;;
10045;SDS011;5063;50.878;4.742;2023-06-22T11:31:19;22.93;;;20.00;;
10045;SDS011;5063;50.878;4.742;2023-06-22T11:33:45;24.60;;;20.03;;
10045;SDS011;5063;50.878;4.742;2023-06-22T11:36:12;24.93;;;20.63;;
10045;SDS011;5063;50.878;4.742;2023-06-22T11:38:38;22.50;;;19.93;;
10045;SDS011;5063;50.878;4.742;2023-06-22T11:41:07;21.83;;;19.53;;
10045;SDS011;5063;50.878;4.742;2023-06-22T11:43:34;23.23;;;20.60;;
10045;SDS011;5063;50.878;4.742;2023-06-22T11:46:01;23.43;;;21.03;;
10045;SDS011;5063;50.878;4.742;2023-06-22T11:48:28;24.53;;;20.57;;
10045;SDS011;5063;50.878;4.742;2023-06-22T11:50:54;24.13;;;20.67;;
10045;SDS011;5063;50.878;4.742;2023-06-22T11:53:21;22.53;;;20.13;;
10045;SDS011;5063;50.878;4.742;2023-06-22T11:55:47;23.60;;;21.23;;
10045;SDS011;5063;50.878;4.742;2023-06-22T11:58:14;24.00;;;20.63;;
10045;SDS011;5063;50.878;4.742;2023-06-22T12:00:40;25.10;;;21.37;;
10045;SDS011;5063;50.878;4.742;2023-06-22T12:03:06;25.07;;;22.03;;
10045;SDS011;5063;50.878;4.742;2023-06-22T12:05:33;25.63;;;22.60;;
10045;SDS011;5063;50.878;4.742;2023-06-22T12:07:58;25.73;;;23.03;;
10045;SDS011;5063;50.878;4.742;2023-06-22T12:10:25;27.73;;;24.73;;
10045;SDS011;5063;50.878;4.742;2023-06-22T12:12:51;28.10;;;23.43;;
10045;SDS011;5063;50.878;4.742;2023-06-22T12:15:16;27.17;;;24.23;;
10045;SDS011;5063;50.878;4.742;2023-06-22T12:17:42;28.57;;;24.50;;
10045;SDS011;5063;50.878;4.742;2023-06-22T12:20:08;29.63;;;24.10;;
10045;SDS011;5063;50.878;4.742;2023-06-22T12:22:35;30.83;;;24.33;;
10045;SDS011;5063;50.878;4.742;2023-06-22T12:25:03;28.20;;;24.70;;
10045;SDS011;5063;50.878;4.742;2023-06-22T12:27:29;28.27;;;25.30;;
10045;SDS011;5063;50.878;4.742;2023-06-22T12:29:56;31.20;;;27.33;;
10045;SDS011;5063;50.878;4.742;2023-06-22T12:32:24;28.87;;;25.57;;
10045;SDS011;5063;50.878;4.742;2023-06-22T12:34:50;31.67;;;27.27;;
10045;SDS011;5063;50.878;4.742;2023-06-22T12:37:16;34.57;;;26.80;;
10045;SDS011;5063;50.878;4.742;2023-06-22T12:39:42;31.60;;;27.13;;
10045;SDS011;5063;50.878;4.742;2023-06-22T12:42:08;35.43;;;27.90;;
10045;SDS011;5063;50.878;4.742;2023-06-22T12:44:38;33.30;;;29.03;;
10045;SDS011;5063;50.878;4.742;2023-06-22T12:47:07;35.63;;;28.23;;
10045;SDS011;5063;50.878;4.742;2023-06-22T12:49:36;33.87;;;29.60;;
10045;SDS011;5063;50.878;4.742;2023-06-22T12:52:02;34.53;;;28.60;;
10045;SDS011;5063;50.878;4.742;2023-06-22T12:54:29;34.20;;;28.90;;
10045;SDS011;5063;50.878;4.742;2023-06-22T12:56:55;37.20;;;29.93;;
10045;SDS011;5063;50.878;4.742;2023-06-22T12:59:21;33.10;;;29.53;;
10045;SDS011;5063;50.878;4.742;2023-06-22T13:01:47;37.70;;;31.10;;
10045;SDS011;5063;50.878;4.742;2023-06-22T13:04:13;34.53;;;30.47;;
10045;SDS011;5063;50.878;4.742;2023-06-22T13:06:43;33.27;;;29.73;;
10045;SDS011;5063;50.878;4.742;2023-06-22T13:09:12;36.00;;;29.33;;
10045;SDS011;5063;50.878;4.742;2023-06-22T13:11:38;35.10;;;29.83;;
10045;SDS011;5063;50.878;4.742;2023-06-22T13:14:04;35.37;;;30.93;;
10045;SDS011;5063;50.878;4.742;2023-06-22T13:16:30;34.73;;;29.80;;
10045;SDS011;5063;50.878;4.742;2023-06-22T13:18:56;32.63;;;29.20;;
10045;SDS011;5063;50.878;4.742;2023-06-22T13:21:22;37.00;;;29.93;;
10045;SDS011;5063;50.878;4.742;2023-06-22T13:23:47;33.33;;;29.73;;
10045;SDS011;5063;50.878;4.742;2023-06-22T13:26:13;34.80;;;30.93;;
10045;SDS011;5063;50.878;4.742;2023-06-22T13:28:39;32.17;;;28.00;;
10045;SDS011;5063;50.878;4.742;2023-06-22T13:31:05;31.37;;;28.03;;
10045;SDS011;5063;50.878;4.742;2023-06-22T13:33:30;38.53;;;31.03;;
10045;SDS011;5063;50.878;4.742;2023-06-22T13:35:56;37.33;;;31.37;;
10045;SDS011;5063;50.878;4.742;2023-06-22T13:38:22;34.60;;;30.17;;
10045;SDS011;5063;50.878;4.742;2023-06-22T13:40:48;35.13;;;31.33;;
10045;SDS011;5063;50.878;4.742;2023-06-22T13:43:14;33.50;;;28.67;;
10045;SDS011;5063;50.878;4.742;2023-06-22T13:45:42;36.27;;;30.27;;
10045;SDS011;5063;50.878;4.742;2023-06-22T13:48:08;33.53;;;29.90;;
10045;SDS011;5063;50.878;4.742;2023-06-22T13:50:34;33.40;;;29.73;;
10045;SDS011;5063;50.878;4.742;2023-06-22T13:53:00;38.00;;;32.33;;
10045;SDS011;5063;50.878;4.742;2023-06-22T13:55:26;37.63;;;30.13;;
10045;SDS011;5063;50.878;4.742;2023-06-22T13:57:51;34.80;;;30.37;;
10045;SDS011;5063;50.878;4.742;2023-06-22T14:00:17;34.67;;;30.37;;
10045;SDS011;5063;50.878;4.742;2023-06-22T14:02:43;35.23;;;31.03;;
10045;SDS011;5063;50.878;4.742;2023-06-22T14:05:09;33.53;;;29.93;;
10045;SDS011;5063;50.878;4.742;2023-06-22T14:07:36;35.03;;;31.33;;
10045;SDS011;5063;50.878;4.742;2023-06-22T14:10:02;34.83;;;29.87;;
10045;SDS011;5063;50.878;4.742;2023-06-22T14:12:29;33.73;;;28.67;;
10045;SDS011;5063;50.878;4.742;2023-06-22T14:14:55;36.90;;;32.07;;
10045;SDS011;5063;50.878;4.742;2023-06-22T14:17:20;32.53;;;29.00;;
10045;SDS011;5063;50.878;4.742;2023-06-22T14:19:50;32.00;;;28.67;;
10045;SDS011;5063;50.878;4.742;2023-06-22T14:22:20;31.43;;;27.50;;
10045;SDS011;5063;50.878;4.742;2023-06-22T14:24:47;34.23;;;30.47;;
10045;SDS011;5063;50.878;4.742;2023-06-22T14:27:13;35.63;;;30.67;;
10045;SDS011;5063;50.878;4.742;2023-06-22T14:29:40;37.70;;;30.40;;
10045;SDS011;5063;50.878;4.742;2023-06-22T14:32:06;32.43;;;28.97;;
10045;SDS011;5063;50.878;4.742;2023-06-22T14:34:33;30.70;;;27.40;;
10045;SDS011;5063;50.878;4.742;2023-06-22T14:37:01;31.90;;;27.47;;
10045;SDS011;5063;50.878;4.742;2023-06-22T14:39:27;31.73;;;28.33;;
10045;SDS011;5063;50.878;4.742;2023-06-22T14:41:53;30.03;;;26.60;;
10045;SDS011;5063;50.878;4.742;2023-06-22T14:44:19;31.00;;;27.50;;
10045;SDS011;5063;50.878;4.742;2023-06-22T14:46:44;30.83;;;27.53;;
10045;SDS011;5063;50.878;4.742;2023-06-22T14:49:10;30.40;;;27.20;;
10045;SDS011;5063;50.878;4.742;2023-06-22T14:51:36;31.90;;;28.60;;
10045;SDS011;5063;50.878;4.742;2023-06-22T14:54:01;31.77;;;28.00;;
10045;SDS011;5063;50.878;4.742;2023-06-22T14:56:27;31.70;;;26.50;;